Time;durP1;ratioP1;P1;durP2;ratioP2;P2;SDS_P1;SDS_P2;PMS_P1;PMS_P2;Temp;Humidity;BMP_temperature;BMP_pressure;BME280_temperature;BME280_humidity;BME280_pressure;Samples;Min_cycle;Max_cycle;Signal;HPM_P1;HPM_P2
2023/12/03 00:00:13;;;;;;;15.32;11.25;;;;;;;-2.25;79.78;101070.50;4909285;29;20084;-72
2023/12/03 00:03:18;;;;;;;16.38;12.82;;;;;;;-2.26;79.68;101075.63;4914390;29;20055;-73
2023/12/03 00:06:22;;;;;;;15.25;11.05;;;;;;;-2.35;79.78;101078.97;4908474;29;20051;-73
2023/12/03 00:09:26;;;;;;;16.83;11.57;;;;;;;-2.16;79.90;101073.16;4913272;29;20421;-72
2023/12/03 00:12:30;;;;;;;15.55;11.45;;;;;;;-2.17;79.85;101078.25;4908006;29;20058;-72
2023/12/03 00:15:35;;;;;;;15.50;11.07;;;;;;;-2.07;79.28;101066.38;4919307;29;20050;-73
2023/12/03 00:18:39;;;;;;;19.35;10.90;;;;;;;-2.12;79.46;101067.19;4919059;29;20063;-74
2023/12/03 00:21:54;;;;;;;16.80;11.30;;;;;;;-2.18;79.27;101072.28;4908514;29;20084;-73
2023/12/03 00:24:59;;;;;;;16.00;11.43;;;;;;;-2.02;79.15;101072.41;4909822;29;20099;-72
2023/12/03 00:28:17;;;;;;;16.40;11.07;;;;;;;-2.03;79.43;101086.06;4909773;29;20046;-72
2023/12/03 00:31:23;;;;;;;16.77;12.20;;;;;;;-2.09;79.62;101075.78;4908396;29;20114;-72
2023/12/03 00:34:27;;;;;;;16.77;11.38;;;;;;;-2.12;79.75;101082.56;4910423;29;20521;-72
2023/12/03 00:37:32;;;;;;;15.93;11.82;;;;;;;-2.08;80.20;101078.31;4909534;29;20048;-73
2023/12/03 00:40:39;;;;;;;;;;;;;;;-2.07;80.07;101085.19;4908312;29;20064;-73
2023/12/03 00:43:46;;;;;;;14.15;10.50;;;;;;;-2.00;79.39;101081.81;4909121;29;19922;-73
2023/12/03 00:46:49;;;;;;;17.25;10.95;;;;;;;-1.98;79.35;101086.94;4909779;29;20039;-73
2023/12/03 00:49:54;;;;;;;14.73;11.13;;;;;;;-2.01;79.57;101079.22;4909770;29;20054;-73
2023/12/03 00:53:01;;;;;;;14.75;10.90;;;;;;;-2.03;79.85;101078.38;4912707;29;20131;-73
2023/12/03 00:56:07;;;;;;;16.27;11.13;;;;;;;-2.38;82.17;101086.59;4908048;29;20064;-73
2023/12/03 00:59:11;;;;;;;14.80;11.73;;;;;;;-2.15;81.56;101081.69;4911290;29;20094;-73
2023/12/03 01:02:16;;;;;;;15.48;11.50;;;;;;;-1.98;80.84;101082.72;4909333;29;20592;-73
2023/12/03 01:05:23;;;;;;;15.13;11.75;;;;;;;-2.00;80.75;101092.06;4907840;29;20140;-73
2023/12/03 01:08:28;;;;;;;16.95;11.55;;;;;;;-1.95;80.82;101089.53;4918174;29;20050;-73
2023/12/03 01:11:43;;;;;;;18.17;11.25;;;;;;;-1.92;80.70;101097.25;4917681;29;20079;-73
2023/12/03 01:15:02;;;;;;;16.30;11.52;;;;;;;-1.97;81.11;101094.66;4917689;29;20071;-73
2023/12/03 01:18:25;;;;;;;16.98;11.25;;;;;;;-1.83;80.81;101105.00;4907482;29;20115;-72
2023/12/03 01:21:45;;;;;;;15.27;11.63;;;;;;;-1.80;81.15;101099.91;4917892;29;20071;-73
2023/12/03 01:24:59;;;;;;;16.42;11.85;;;;;;;-1.77;80.55;101099.94;4917509;29;20090;-73
2023/12/03 01:28:21;;;;;;;14.52;11.02;;;;;;;-1.72;80.96;101105.13;4917021;29;20055;-72
2023/12/03 01:31:41;;;;;;;12.30;9.57;;;;;;;-1.64;80.87;101101.75;4917788;29;20425;-73
2023/12/03 01:35:07;;;;;;;15.05;11.45;;;;;;;-1.58;80.23;101107.78;4917960;29;20047;-73
2023/12/03 01:38:36;;;;;;;14.63;10.60;;;;;;;-1.66;81.02;101106.00;4918138;29;20111;-73
2023/12/03 01:41:52;;;;;;;15.80;11.05;;;;;;;-1.64;80.88;101111.13;4917157;29;20066;-73
2023/12/03 01:44:59;;;;;;;16.95;11.38;;;;;;;-1.70;81.02;101114.50;4916526;29;20047;-73
2023/12/03 01:48:02;;;;;;;15.45;11.65;;;;;;;-1.72;81.58;101108.53;4916725;29;20050;-73
2023/12/03 01:51:16;;;;;;;15.25;11.75;;;;;;;-1.71;81.55;101106.81;4916808;29;20039;-73
2023/12/03 01:54:41;;;;;;;16.42;11.77;;;;;;;-1.68;81.95;101115.38;4916927;29;20099;-73
2023/12/03 01:57:48;;;;;;;14.98;11.35;;;;;;;-1.68;81.93;101117.97;4916675;29;20051;-72
2023/12/03 02:00:55;;;;;;;16.55;12.15;;;;;;;-1.58;81.54;101118.03;4916623;29;20055;-72
2023/12/03 02:04:01;;;;;;;15.27;11.63;;;;;;;-1.54;81.36;101114.63;4916836;29;20095;-72
2023/12/03 02:07:09;;;;;;;16.52;11.25;;;;;;;-1.58;81.85;101115.47;4917379;29;20414;-72
2023/12/03 02:10:18;;;;;;;15.90;11.63;;;;;;;-1.58;81.86;101116.31;4917343;29;20099;-72
2023/12/03 02:13:37;;;;;;;17.30;12.20;;;;;;;-1.49;82.14;101118.09;4917183;29;20138;-72
2023/12/03 02:16:58;;;;;;;16.70;12.23;;;;;;;-1.90;83.47;101116.06;4917406;29;20143;-72
2023/12/03 02:20:25;;;;;;;16.05;11.45;;;;;;;-1.67;83.00;101109.41;4916889;29;20063;-72
2023/12/03 02:23:47;;;;;;;15.70;11.45;;;;;;;-1.53;82.61;101116.34;4917078;29;20051;-72
2023/12/03 02:27:16;;;;;;;15.20;12.35;;;;;;;-1.52;82.52;101118.91;4916943;29;20054;-73
2023/12/03 02:30:30;;;;;;;14.55;11.32;;;;;;;-1.52;82.63;101125.75;4916258;29;20119;-73
2023/12/03 02:33:47;;;;;;;17.45;13.15;;;;;;;-1.50;82.68;101121.47;4915958;29;20095;-72
2023/12/03 02:37:01;;;;;;;15.73;12.05;;;;;;;-1.80;83.76;101128.13;4915685;29;20107;-73
2023/12/03 02:40:18;;;;;;;16.08;12.27;;;;;;;-1.75;84.24;101136.72;4915931;29;20082;-72
2023/12/03 02:43:27;;;;;;;17.48;12.98;;;;;;;-1.78;84.35;101139.25;4915782;29;20070;-72
2023/12/03 02:46:39;;;;;;;18.27;12.90;;;;;;;-1.57;83.91;101138.53;4915376;29;20091;-72
2023/12/03 02:49:51;;;;;;;16.23;12.40;;;;;;;-1.45;83.11;101132.66;4915419;29;20539;-72
2023/12/03 02:52:56;;;;;;;16.52;12.05;;;;;;;-1.42;83.08;101138.66;4915478;29;20505;-72
2023/12/03 02:56:07;;;;;;;15.85;12.52;;;;;;;-1.37;83.76;101145.50;4916055;29;20047;-72
2023/12/03 02:59:22;;;;;;;16.63;12.13;;;;;;;-1.34;83.35;101141.28;4916065;29;20051;-72
2023/12/03 03:02:37;;;;;;;16.25;12.13;;;;;;;-1.38;83.75;101144.66;4915219;29;20063;-72
2023/12/03 03:05:46;;;;;;;16.45;12.23;;;;;;;-1.41;83.86;101142.06;4915297;29;20071;-72
2023/12/03 03:09:02;;;;;;;14.15;11.20;;;;;;;-1.32;83.54;101149.81;4915339;29;20051;-72
2023/12/03 03:12:24;;;;;;;19.40;12.50;;;;;;;-1.35;83.73;101144.66;4915967;29;20051;-72
2023/12/03 03:15:47;;;;;;;16.67;12.40;;;;;;;-1.33;83.62;101148.13;4915150;29;20566;-72
2023/12/03 03:18:55;;;;;;;19.47;13.17;;;;;;;-1.39;83.92;101140.38;4914968;29;20058;-73
2023/12/03 03:22:02;;;;;;;17.50;12.35;;;;;;;-1.29;83.69;101149.84;4915026;29;20506;-72
2023/12/03 03:25:16;;;;;;;17.70;13.07;;;;;;;-1.30;83.51;101153.28;4915472;29;20121;-72
2023/12/03 03:28:41;;;;;;;17.40;11.48;;;;;;;-1.24;83.49;101155.88;4915777;29;20546;-72
2023/12/03 03:32:04;;;;;;;16.23;12.52;;;;;;;-1.27;83.44;101160.13;4915728;29;20553;-72
2023/12/03 03:35:18;;;;;;;17.20;12.77;;;;;;;-1.28;83.59;101160.97;4915348;29;20125;-72
2023/12/03 03:38:34;;;;;;;18.60;13.50;;;;;;;-1.38;84.18;101162.59;4915019;29;20046;-72
2023/12/03 03:41:44;;;;;;;14.70;11.65;;;;;;;-1.34;84.18;101166.06;4914814;29;20422;-72
2023/12/03 03:44:49;;;;;;;17.13;11.52;;;;;;;-1.37;83.78;101169.47;4915113;29;20051;-72
2023/12/03 03:48:03;;;;;;;16.65;12.93;;;;;;;-1.47;84.64;101170.25;4916122;29;20189;-72
2023/12/03 03:51:30;;;;;;;16.20;11.95;;;;;;;-1.78;85.73;101172.56;4915729;29;20542;-72
2023/12/03 03:54:48;;;;;;;16.40;12.35;;;;;;;-1.61;85.28;101166.72;4915504;29;20051;-73
2023/12/03 03:58:12;;;;;;;18.35;12.57;;;;;;;-1.67;84.67;101175.22;4915405;29;20191;-72
2023/12/03 04:01:32;;;;;;;16.87;12.43;;;;;;;-1.63;84.17;101179.50;4915250;29;20055;-72
2023/12/03 04:04:54;;;;;;;17.30;12.45;;;;;;;-1.73;84.02;101173.44;4915190;29;20291;-72
2023/12/03 04:08:25;;;;;;;16.77;12.80;;;;;;;-1.69;84.11;101185.47;4916035;29;20506;-73
2023/12/03 04:11:49;;;;;;;20.17;13.32;;;;;;;-1.86;83.97;101189.59;4919357;29;20051;-73
2023/12/03 04:15:10;;;;;;;19.98;12.88;;;;;;;-1.98;84.26;101189.47;4919249;29;20125;-73
2023/12/03 04:18:38;;;;;;;16.50;12.32;;;;;;;-2.20;84.84;101196.94;4919373;29;20067;-73
2023/12/03 04:22:11;;;;;;;15.48;11.52;;;;;;;-2.07;84.30;101197.94;4918965;29;20051;-73
2023/12/03 04:25:28;;;;;;;18.70;12.48;;;;;;;-2.12;84.02;101197.88;4919140;29;20090;-72
2023/12/03 04:28:51;;;;;;;18.85;13.60;;;;;;;-2.05;84.01;101200.50;4919352;29;20143;-72
2023/12/03 04:32:21;;;;;;;16.13;11.93;;;;;;;-1.94;83.79;101194.66;4919049;29;20046;-72
2023/12/03 04:35:35;;;;;;;17.42;12.70;;;;;;;-1.96;82.90;101192.91;4919010;29;20073;-72
2023/12/03 04:38:46;;;;;;;17.85;12.80;;;;;;;-2.14;82.85;101202.13;4918418;29;20565;-72
2023/12/03 04:42:07;;;;;;;16.80;12.45;;;;;;;-2.06;83.14;101209.03;4918696;29;20128;-72
2023/12/03 04:45:28;;;;;;;16.95;12.55;;;;;;;-2.00;82.82;101206.53;4918853;29;20058;-72
2023/12/03 04:48:52;;;;;;;18.90;12.32;;;;;;;-2.07;82.34;101218.44;4919055;29;20051;-72
2023/12/03 04:52:16;;;;;;;16.13;12.20;;;;;;;-2.06;82.41;101222.72;4918551;29;20055;-72
2023/12/03 04:55:35;;;;;;;19.63;12.73;;;;;;;-2.26;82.50;101222.50;4918898;29;20131;-72
2023/12/03 05:03:15;;;;;;;16.00;12.23;;;;;;;-2.13;83.32;101220.94;4916383;29;20106;-72
2023/12/03 05:06:20;;;;;;;15.35;11.77;;;;;;;-2.02;82.74;101215.91;4906553;29;20051;-72
2023/12/03 05:09:26;;;;;;;17.70;12.68;;;;;;;-2.07;82.48;101218.44;4906684;29;20083;-73
2023/12/03 05:12:37;;;;;;;19.25;13.20;;;;;;;-2.01;82.53;101218.50;4907982;29;20051;-73
2023/12/03 05:15:47;;;;;;;16.00;12.57;;;;;;;-1.92;82.35;101215.16;4909414;29;20051;-73
2023/12/03 05:18:58;;;;;;;17.58;12.55;;;;;;;-1.88;82.56;101209.22;4908795;29;20095;-73
2023/12/03 05:22:06;;;;;;;19.73;13.95;;;;;;;-2.05;83.10;101211.59;4909448;29;20063;-73
2023/12/03 05:25:15;;;;;;;20.30;15.05;;;;;;;-1.99;83.40;101213.38;4902907;29;20056;-73
2023/12/03 05:28:25;;;;;;;17.90;13.27;;;;;;;-2.00;83.20;101214.22;4898487;29;20086;-73
2023/12/03 05:31:32;;;;;;;18.08;12.75;;;;;;;-2.04;83.61;101212.47;4897681;29;20056;-73
2023/12/03 05:34:52;;;;;;;16.55;12.40;;;;;;;-2.08;84.16;101215.84;4897071;29;20051;-73
2023/12/03 05:38:13;;;;;;;18.15;12.40;;;;;;;-2.32;84.07;101219.88;4896923;29;20184;-73
2023/12/03 05:41:39;;;;;;;19.02;13.98;;;;;;;-2.48;84.63;101231.63;4896920;29;20056;-73
2023/12/03 05:44:56;;;;;;;17.33;12.00;;;;;;;-2.42;84.88;101231.69;4896366;29;20059;-73
2023/12/03 05:48:03;;;;;;;17.13;12.02;;;;;;;-2.59;84.76;101245.97;4897400;29;20135;-73
2023/12/03 05:51:25;;;;;;;17.50;12.25;;;;;;;-2.54;84.94;101244.34;4898779;29;20040;-73
2023/12/03 05:55:04;;;;;;;14.65;10.93;;;;;;;-2.45;84.09;101243.63;4898708;29;20060;-73
2023/12/03 05:58:29;;;;;;;19.75;13.10;;;;;;;-2.71;84.51;101248.38;4898665;29;20116;-73
2023/12/03 06:01:51;;;;;;;18.45;12.60;;;;;;;-2.52;84.31;101239.22;4898589;29;20135;-73
2023/12/03 06:05:17;;;;;;;21.05;13.35;;;;;;;-2.49;83.85;101240.16;4897997;29;20055;-73
2023/12/03 06:08:43;;;;;;;17.33;12.57;;;;;;;-2.54;83.90;101248.63;4898454;29;20575;-73
2023/12/03 06:12:10;;;;;;;17.98;13.15;;;;;;;-2.60;83.64;101250.25;4898312;29;20525;-73
2023/12/03 06:15:38;;;;;;;22.02;14.85;;;;;;;-2.85;85.13;101261.00;4898305;29;20047;-73
2023/12/03 06:18:53;;;;;;;20.08;13.98;;;;;;;-2.74;85.00;101256.91;4897868;29;20124;-73
2023/12/03 06:21:58;;;;;;;19.60;13.93;;;;;;;-2.57;84.62;101250.28;4897959;29;20148;-73
2023/12/03 06:25:21;;;;;;;20.45;13.00;;;;;;;-2.50;83.58;101250.38;4916864;29;20573;-73
2023/12/03 06:28:42;;;;;;;19.63;13.05;;;;;;;-2.61;83.44;101255.34;4935892;29;20086;-73
2023/12/03 06:32:09;;;;;;;21.40;12.95;;;;;;;-2.60;83.88;101254.50;4935403;29;20046;-73
2023/12/03 06:35:20;;;;;;;19.30;13.23;;;;;;;-2.65;83.80;101264.69;4936035;29;20051;-73
2023/12/03 06:38:25;;;;;;;20.38;14.48;;;;;;;-3.08;85.81;101274.28;4935473;29;20046;-73
2023/12/03 06:45:48;;;;;;;20.50;13.50;;;;;;;-2.71;85.11;101279.97;4934116;29;20171;-73
2023/12/03 06:48:57;;;;;;;19.15;13.55;;;;;;;-2.62;84.80;101286.91;4934757;29;20056;-73
2023/12/03 06:52:07;;;;;;;19.92;13.25;;;;;;;-2.54;84.87;101297.25;4934721;29;20114;-72
2023/12/03 06:55:22;;;;;;;17.92;12.77;;;;;;;-2.39;84.31;101297.47;4934896;29;20425;-72
2023/12/03 06:58:29;;;;;;;19.60;14.05;;;;;;;-2.37;84.38;101306.03;4935452;29;20067;-71
2023/12/03 07:01:37;;;;;;;17.95;12.68;;;;;;;-2.30;84.74;101312.09;4907471;29;20047;-72
2023/12/03 07:04:43;;;;;;;19.40;12.73;;;;;;;-2.28;84.59;101306.16;4908569;29;20524;-72
2023/12/03 07:07:52;;;;;;;18.38;12.57;;;;;;;-2.28;84.75;101316.38;4900598;29;20051;-70
2023/12/03 07:11:03;;;;;;;17.92;11.98;;;;;;;-2.22;84.42;101318.19;4896878;29;20091;-73
2023/12/03 07:14:11;;;;;;;18.77;12.82;;;;;;;-2.15;84.56;101333.63;4897024;29;20468;-72
2023/12/03 07:17:20;;;;;;;16.35;12.07;;;;;;;-1.98;84.30;101335.53;4902995;29;20422;-72
2023/12/03 07:20:25;;;;;;;16.65;12.15;;;;;;;-1.91;84.16;101342.47;4894913;29;20456;-72
2023/12/03 07:23:30;;;;;;;17.65;12.98;;;;;;;-1.96;84.21;101337.28;4913207;29;20471;-72
2023/12/03 07:26:41;;;;;;;19.05;12.10;;;;;;;-1.92;84.30;101346.72;4913929;29;20051;-71
2023/12/03 07:30:21;;;;;;;17.40;12.27;;;;;;;-1.85;84.24;101352.81;4908318;29;20108;-72
2023/12/03 07:34:00;;;;;;;17.45;12.63;;;;;;;-1.84;84.37;101357.09;4901768;29;20111;-74
2023/12/03 07:37:20;;;;;;;16.73;11.90;;;;;;;-1.77;84.13;101350.31;4935340;29;20109;-73
2023/12/03 07:40:28;;;;;;;16.67;11.60;;;;;;;-1.72;84.05;101353.81;4932005;29;20072;-73
2023/12/03 07:43:36;;;;;;;22.58;14.63;;;;;;;-1.95;84.91;101346.69;4933421;29;20118;-68
2023/12/03 07:46:46;;;;;;;44.65;27.83;;;;;;;-1.94;85.41;101357.81;4937488;29;20106;-73
2023/12/03 07:49:53;;;;;;;38.10;23.92;;;;;;;-1.78;85.05;101359.72;4937576;29;20046;-73
2023/12/03 07:53:00;;;;;;;26.42;18.10;;;;;;;-2.24;85.99;101377.06;4937419;29;20458;-72
2023/12/03 07:56:07;;;;;;;29.63;18.33;;;;;;;-2.18;86.43;101378.84;4938448;29;20047;-73
2023/12/03 07:59:14;;;;;;;27.35;18.40;;;;;;;-2.04;85.72;101381.59;4937924;29;20051;-70
2023/12/03 08:02:25;;;;;;;29.13;17.77;;;;;;;-2.01;85.45;101372.28;4937176;29;20055;-75
2023/12/03 08:05:31;;;;;;;29.25;18.92;;;;;;;-1.80;85.20;101371.66;4935864;29;20120;-74
2023/12/03 08:08:41;;;;;;;26.77;17.23;;;;;;;-1.48;83.67;101377.13;4937194;29;20055;-72
2023/12/03 08:11:46;;;;;;;25.67;16.85;;;;;;;-1.56;83.67;101375.31;4936852;29;20046;-71
2023/12/03 08:14:54;;;;;;;26.58;17.42;;;;;;;-1.56;83.26;101365.06;4922400;29;20047;-70
2023/12/03 08:18:47;;;;;;;23.38;15.88;;;;;;;-1.48;82.10;101359.19;4918618;29;20060;-75
2023/12/03 08:22:21;;;;;;;26.08;17.00;;;;;;;-1.33;81.00;101363.63;4899549;29;20108;-73
2023/12/03 08:25:28;;;;;;;26.85;17.30;;;;;;;-1.29;82.27;101360.22;4900114;29;20529;-73
2023/12/03 08:28:41;;;;;;;25.90;16.48;;;;;;;-1.30;82.31;101367.94;4898384;29;20109;-74
2023/12/03 08:31:49;;;;;;;25.10;16.58;;;;;;;-1.23;83.31;101364.56;4902855;29;20119;-67
2023/12/03 08:35:03;;;;;;;24.60;15.55;;;;;;;-1.08;82.03;101357.03;4918285;29;20099;-72
2023/12/03 08:38:08;;;;;;;25.70;15.07;;;;;;;-1.01;80.54;101363.06;4917920;29;20055;-73
2023/12/03 08:41:12;;;;;;;23.25;15.30;;;;;;;-1.10;80.34;101371.53;4917554;29;20055;-73
2023/12/03 08:44:17;;;;;;;24.83;16.35;;;;;;;-1.05;80.16;101381.88;4917599;29;20433;-76
2023/12/03 08:47:21;;;;;;;23.20;16.73;;;;;;;-0.89;79.72;101377.69;4915481;29;20055;-74
2023/12/03 08:50:31;;;;;;;30.90;16.60;;;;;;;-0.87;79.51;101382.00;4915785;29;20529;-72
2023/12/03 08:53:35;;;;;;;26.95;17.67;;;;;;;-0.85;79.38;101382.88;4917276;29;20110;-73
2023/12/03 08:56:39;;;;;;;25.60;16.40;;;;;;;-0.78;79.33;101376.94;4916703;29;20191;-73
2023/12/03 08:59:49;;;;;;;24.23;16.35;;;;;;;-0.77;79.50;101383.78;4916348;29;20104;-71
2023/12/03 09:02:56;;;;;;;24.45;16.90;;;;;;;-0.81;80.05;101376.91;4917694;29;20075;-72
2023/12/03 09:06:03;;;;;;;27.95;17.27;;;;;;;-0.86;80.13;101377.72;4916823;29;20046;-73
2023/12/03 09:09:13;;;;;;;23.70;16.13;;;;;;;-0.78;80.17;101374.38;4915713;29;20094;-71
2023/12/03 09:12:20;;;;;;;25.13;16.48;;;;;;;-0.83;80.59;101378.63;4916608;29;20079;-72
2023/12/03 09:15:24;;;;;;;22.33;15.25;;;;;;;-0.80;80.44;101373.53;4917267;29;20059;-75
2023/12/03 09:18:38;;;;;;;24.70;16.73;;;;;;;-0.72;80.32;101381.28;4919890;29;20452;-75
2023/12/03 09:22:39;;;;;;;23.80;15.80;;;;;;;-0.72;81.10;101379.56;4872154;29;20043;-74
2023/12/03 09:25:44;;;;;;;25.45;16.15;;;;;;;-0.80;81.01;101372.63;4915317;29;20054;-74
2023/12/03 09:28:48;;;;;;;21.95;15.98;;;;;;;-0.75;80.72;101373.53;4925799;29;20093;-74
2023/12/03 09:31:52;;;;;;;23.73;15.50;;;;;;;-0.69;81.07;101372.72;4935824;29;20059;-73
2023/12/03 09:35:14;;;;;;;22.70;15.70;;;;;;;-0.73;80.76;101366.72;4935679;29;20130;-75
2023/12/03 09:38:25;;;;;;;24.13;15.38;;;;;;;-0.72;80.95;101366.72;4935566;29;20043;-75
2023/12/03 09:41:34;;;;;;;22.02;15.35;;;;;;;-0.75;81.27;101368.41;4896494;29;20075;-75
2023/12/03 09:44:46;;;;;;;24.70;15.63;;;;;;;-0.72;81.69;101371.00;4897055;29;20053;-74
2023/12/03 09:47:59;;;;;;;23.52;14.80;;;;;;;-0.69;81.83;101375.31;4896736;29;20083;-74
2023/12/03 09:51:05;;;;;;;22.65;14.23;;;;;;;-0.75;81.98;101373.53;4897460;29;20051;-74
2023/12/03 09:54:09;;;;;;;26.10;17.05;;;;;;;-0.64;81.54;101376.19;4895574;29;20418;-74
2023/12/03 09:57:15;;;;;;;21.17;14.55;;;;;;;-0.62;81.79;101366.78;4897287;29;20112;-74
2023/12/03 10:00:22;;;;;;;24.30;16.20;;;;;;;-0.68;82.01;101359.88;4897557;29;20055;-74
2023/12/03 10:03:30;;;;;;;26.35;15.52;;;;;;;-0.64;81.51;101365.91;4897168;29;20059;-74
2023/12/03 10:06:43;;;;;;;27.08;16.38;;;;;;;-0.76;79.55;101357.28;4901274;29;20051;-74
2023/12/03 10:09:48;;;;;;;;;;;;;;;-0.56;79.82;101369.41;4923265;29;20660;-75
2023/12/03 10:13:16;;;;;;;27.17;17.13;;;;;;;-0.66;79.81;101372.75;4923374;29;19925;-73
2023/12/03 10:16:22;;;;;;;23.63;15.80;;;;;;;-0.69;79.08;101370.16;4914684;29;20534;-75
2023/12/03 10:19:27;;;;;;;25.50;15.88;;;;;;;-0.57;80.69;101373.69;4914066;29;20147;-75
2023/12/03 10:22:31;;;;;;;19.90;14.23;;;;;;;-0.43;80.14;101375.47;4915502;29;20151;-76
2023/12/03 10:25:36;;;;;;;23.35;15.23;;;;;;;-0.53;80.67;101375.41;4914960;29;20117;-76
2023/12/03 10:28:47;;;;;;;21.58;14.93;;;;;;;-0.38;80.46;101372.09;4919402;29;20139;-75
2023/12/03 10:32:00;;;;;;;23.33;14.95;;;;;;;-0.30;80.22;101372.13;4904824;29;20047;-75
2023/12/03 10:35:13;;;;;;;25.17;15.80;;;;;;;-0.33;80.58;101372.09;4916405;29;20485;-75
2023/12/03 10:38:27;;;;;;;27.85;19.55;;;;;;;-0.37;80.22;101366.09;4916266;29;20139;-74
2023/12/03 10:45:49;;;;;;;22.83;14.60;;;;;;;-0.41;79.43;101372.06;4914910;29;20108;-74
2023/12/03 10:49:17;;;;;;;25.42;16.88;;;;;;;-0.25;79.59;101366.19;4914707;29;20051;-74
2023/12/03 10:52:32;;;;;;;22.17;15.55;;;;;;;-0.05;79.32;101358.56;4915262;29;20415;-75
2023/12/03 10:55:55;;;;;;;35.00;19.95;;;;;;;0.04;78.36;101362.88;4914566;29;20127;-75
2023/12/03 10:59:25;;;;;;;45.28;27.50;;;;;;;0.04;77.51;101357.75;4914489;29;20086;-76
2023/12/03 11:02:57;;;;;;;26.20;17.65;;;;;;;0.01;74.13;101356.88;4915223;29;20095;-77
2023/12/03 11:06:04;;;;;;;32.03;20.58;;;;;;;-0.03;74.12;101356.00;4914409;29;20112;-77
2023/12/03 11:09:09;;;;;;;30.10;19.63;;;;;;;0.27;74.70;101354.41;4915185;29;20514;-76
2023/12/03 11:12:15;;;;;;;25.73;17.30;;;;;;;0.08;73.12;101354.31;4915242;29;20046;-76
2023/12/03 11:15:27;;;;;;;28.08;19.48;;;;;;;0.33;73.26;101345.00;4914234;29;20055;-73
2023/12/03 11:18:56;;;;;;;25.52;18.00;;;;;;;0.44;74.07;101337.28;4920235;29;20063;-74
2023/12/03 11:22:29;;;;;;;33.80;23.55;;;;;;;0.60;73.71;101333.88;4937979;29;20078;-73
2023/12/03 11:25:41;;;;;;;23.02;16.63;;;;;;;0.42;71.69;101314.13;4912335;29;20138;-75
2023/12/03 11:28:58;;;;;;;23.25;15.68;;;;;;;0.34;71.30;101312.41;4937455;29;20054;-75
2023/12/03 11:32:05;;;;;;;22.38;15.63;;;;;;;0.31;70.95;101317.53;4937999;29;20382;-74
2023/12/03 11:35:18;;;;;;;26.58;17.83;;;;;;;0.37;71.06;101314.97;4938068;29;20050;-74
2023/12/03 11:38:22;;;;;;;;;;;;;;;0.52;70.63;101309.03;4938232;29;20081;-74
2023/12/03 11:41:25;;;;;;;21.50;14.67;;;;;;;0.43;70.29;101309.84;4937649;29;19926;-74
2023/12/03 11:44:29;;;;;;;22.23;15.68;;;;;;;0.65;71.01;101309.03;4938118;29;20050;-74
2023/12/03 11:47:35;;;;;;;23.13;16.13;;;;;;;0.55;70.42;101307.31;4925863;29;20131;-75
2023/12/03 11:50:43;;;;;;;25.10;16.95;;;;;;;0.78;69.85;101311.63;4937527;29;20050;-74
2023/12/03 11:54:01;;;;;;;22.17;15.32;;;;;;;0.40;69.75;101307.28;4937280;29;20135;-76
2023/12/03 11:57:15;;;;;;;22.77;14.80;;;;;;;0.44;69.96;101309.84;4937242;29;20103;-76
2023/12/03 12:00:19;;;;;;;25.08;17.08;;;;;;;0.54;69.10;101310.72;4937238;29;20095;-76
2023/12/03 12:03:25;;;;;;;22.63;16.05;;;;;;;0.65;69.52;101305.59;4937233;29;20135;-76
2023/12/03 12:06:30;;;;;;;36.35;23.92;;;;;;;0.74;69.60;101299.59;4925586;29;20047;-76
2023/12/03 12:09:33;;;;;;;31.65;21.33;;;;;;;1.07;69.54;101299.59;4937365;29;20058;-75
2023/12/03 12:12:36;;;;;;;27.73;17.92;;;;;;;1.03;68.95;101295.31;4937027;29;20087;-75
2023/12/03 12:15:43;;;;;;;24.50;17.48;;;;;;;1.13;68.85;101293.56;4937294;29;20529;-76
2023/12/03 12:18:59;;;;;;;25.23;17.85;;;;;;;1.14;68.80;101282.41;4934941;29;20210;-77
2023/12/03 12:22:24;;;;;;;23.23;17.10;;;;;;;1.00;67.93;101287.56;4936801;29;20070;-77
2023/12/03 12:25:53;;;;;;;23.83;15.95;;;;;;;1.04;68.20;101272.97;4936550;29;20081;-77
2023/12/03 12:29:15;;;;;;;26.17;16.92;;;;;;;1.28;69.06;101269.53;4925121;29;20046;-77
2023/12/03 12:32:42;;;;;;;22.83;15.63;;;;;;;1.39;69.48;101276.34;4936579;29;20418;-77
2023/12/03 12:36:05;;;;;;;21.05;14.95;;;;;;;1.48;70.02;101264.31;4936418;29;20143;-77
2023/12/03 12:39:26;;;;;;;23.40;15.50;;;;;;;1.46;70.70;101266.03;4936628;29;20537;-77
2023/12/03 12:42:48;;;;;;;20.25;13.80;;;;;;;1.44;71.37;101272.91;4936700;29;20483;-77
2023/12/03 12:46:10;;;;;;;23.38;15.45;;;;;;;1.32;71.69;101261.75;4937373;29;20126;-77
2023/12/03 12:49:32;;;;;;;28.63;17.67;;;;;;;1.22;71.12;101262.66;4936268;29;20556;-77
2023/12/03 12:53:02;;;;;;;20.50;15.70;;;;;;;1.31;71.57;101256.63;4936167;29;20161;-77
2023/12/03 12:56:14;;;;;;;21.55;15.38;;;;;;;1.31;72.88;101254.06;4937032;29;20115;-76
2023/12/03 12:59:29;;;;;;;19.58;14.63;;;;;;;1.13;74.36;101255.78;4936669;29;20195;-76
2023/12/03 13:02:53;;;;;;;18.90;14.05;;;;;;;1.22;71.05;101246.34;4936125;29;20127;-76
2023/12/03 13:06:15;;;;;;;22.45;14.10;;;;;;;1.06;68.84;101245.50;4936084;29;20050;-77
2023/12/03 13:09:44;;;;;;;19.70;13.52;;;;;;;1.10;71.25;101248.06;4935974;29;20055;-77
2023/12/03 13:13:16;;;;;;;18.75;12.35;;;;;;;1.08;72.27;101238.63;4936079;29;20039;-77
2023/12/03 13:16:42;;;;;;;19.17;13.23;;;;;;;1.08;69.89;101229.16;4936277;29;20050;-77
2023/12/03 13:19:52;;;;;;;18.05;11.80;;;;;;;1.10;67.79;101219.72;4935675;29;20131;-77
2023/12/03 13:23:16;;;;;;;26.00;14.38;;;;;;;1.16;67.38;101213.72;4936434;29;20592;-76
2023/12/03 13:26:29;;;;;;;15.10;11.43;;;;;;;1.20;70.78;101206.84;4925186;29;20075;-76
2023/12/03 13:29:48;;;;;;;15.75;11.73;;;;;;;1.10;71.98;101206.84;4904224;29;20214;-75
2023/12/03 13:32:58;;;;;;;20.23;12.35;;;;;;;1.01;72.50;101216.31;4907605;29;20119;-76
2023/12/03 13:36:03;;;;;;;19.10;12.60;;;;;;;0.92;73.97;101217.19;4905324;29;20521;-76
2023/12/03 13:39:07;;;;;;;16.20;11.93;;;;;;;0.90;74.32;101222.34;4916605;29;20071;-76
2023/12/03 13:42:14;;;;;;;16.33;12.15;;;;;;;0.87;74.81;101222.34;4904448;29;20054;-77
2023/12/03 13:45:22;;;;;;;17.52;12.55;;;;;;;0.91;75.00;101216.34;4916539;29;20055;-77
2023/12/03 13:48:29;;;;;;;18.20;11.93;;;;;;;0.89;74.78;101215.50;4916271;29;20086;-75
2023/12/03 13:51:40;;;;;;;19.92;13.63;;;;;;;0.86;75.82;101215.50;4913506;29;20092;-76
2023/12/03 13:54:48;;;;;;;40.00;24.77;;;;;;;0.78;75.37;101211.22;4905490;29;20084;-74
2023/12/03 13:57:53;;;;;;;21.98;13.85;;;;;;;0.74;76.22;101212.94;4909729;29;20054;-75
2023/12/03 14:01:02;;;;;;;20.45;13.82;;;;;;;0.66;76.71;101210.34;4905696;29;20116;-75
2023/12/03 14:04:05;;;;;;;17.80;13.27;;;;;;;0.73;76.01;101210.34;4897338;29;20467;-75
2023/12/03 14:07:18;;;;;;;18.10;12.30;;;;;;;0.59;75.99;101213.78;4902847;29;20050;-74
2023/12/03 14:10:23;;;;;;;16.15;11.68;;;;;;;0.69;75.54;101205.19;4906694;29;20070;-75
2023/12/03 14:13:31;;;;;;;20.50;13.45;;;;;;;0.76;76.10;101210.34;4912525;29;20131;-75
2023/12/03 14:16:37;;;;;;;19.20;14.93;;;;;;;0.88;75.70;101210.34;4912295;29;20072;-70
2023/12/03 14:19:41;;;;;;;22.17;15.40;;;;;;;1.01;75.02;101206.03;4900036;29;20067;-75
2023/12/03 14:22:49;;;;;;;19.35;14.52;;;;;;;0.94;75.34;101205.19;4900437;29;20410;-72
2023/12/03 14:25:59;;;;;;;18.27;13.50;;;;;;;0.93;76.11;101206.06;4902212;29;20048;-73
2023/12/03 14:29:05;;;;;;;20.88;14.25;;;;;;;0.90;76.60;101214.63;4903243;29;20080;-72
2023/12/03 14:32:14;;;;;;;22.50;16.15;;;;;;;0.76;76.71;101216.34;4898576;29;20039;-72
2023/12/03 14:35:31;;;;;;;20.20;14.55;;;;;;;0.81;76.85;101213.78;4912885;29;20051;-71
2023/12/03 14:38:54;;;;;;;32.97;21.15;;;;;;;0.51;77.81;101207.81;4896654;29;20127;-71
2023/12/03 14:42:21;;;;;;;21.73;14.20;;;;;;;0.60;78.34;101214.66;4901276;29;20111;-71
2023/12/03 14:45:34;;;;;;;25.35;16.73;;;;;;;0.44;79.23;101216.38;4915650;29;20086;-71
2023/12/03 14:48:40;;;;;;;26.83;18.33;;;;;;;0.60;78.25;101210.34;4915109;29;20138;-69
2023/12/03 14:51:59;;;;;;;22.42;16.05;;;;;;;0.60;78.45;101223.22;4915670;29;20095;-69
2023/12/03 14:55:09;;;;;;;;;;;;;;;0.55;78.62;101217.25;4915626;29;20202;-72